Airfield :
LOGIN :

Register | Disclaimer

   EN    FR    IT 

 










Legend :    VFR   Marginal VFR   IFR   Intensive IFR   Very Intensive IFR
Visi :
Ceiling :
>= 8 km
>= 3000ft
5 to 8 km
1000 to 3000 ft
1500m to 5 km
500 to 1000 ft
800 to 1500m
200 to 500 ft
< 800m
< 200 ft
Symbols :   Thunderstorms  Fog  Heavy snow  Heavy precipitations  Wind > 20 kt
SIGMETs :     Misc.  Thunderstorms  Icing  Turbulence  Mountain Waves  Volcanic Ashes






- Airport Elevation : 38 ft
- IATA code : BOH


EGHH - Bournemouth

CURRENT METAR :
  • 240820Z VRB02KT 9999 FEW009CB SCT012 01/01 Q0995

EXPIRED METARs :
  • 240750Z 02005KT 340V060 5000 -RASN BR SCT008CB BKN015 02/01 Q0995 RERASN
  • 240720Z VRB03KT 4000 RASN BR BKN008 02/01 Q0995
  • 240650Z VRB02KT 3000 RASN BR BKN008 02/02 Q0995
  • 240620Z 26011KT 9999 -RASN SCT009 BKN011 02/01 Q0996
  • 240550Z 12007KT 9999 -RASN SCT033 BKN049 02/00 Q0996

TAF TAF EGHH
Valid from the 24 at 09:00 until the 24 at 18:00 UTC


240806Z 2409/2418 28005KT 9999 SCT015
PROB30
TEMPO 2409/2411 2000 -SN
PROB30
TEMPO 2411/2418 5000 -SHRASN BKN012
ATIS : +44 1202 364 151
Met : +44 1202 364 158 (TAF)



MET'MAP, your aeronautical weather chart ! - Copyright ORBIFLY December 2007 - Disclaimer

ORBIFLY MET'MAP TEAM :

Programming & Development : Alexandra Zaïnal
Concept & original design : Baudouin d'Aumeries
Assistance for programming : Marc-Olivier Méhu
Technical & hardware support : Manuel Goepfert

Contact : metmap@orbifly.com




SOURCES & CREDITS :

   NOAA